Time;durP1;ratioP1;P1;durP2;ratioP2;P2;SDS_P1;SDS_P2;PMS_P1;PMS_P2;Temp;Humidity;BMP_temperature;BMP_pressure;BME280_temperature;BME280_humidity;BME280_pressure;Samples;Min_cycle;Max_cycle;Signal;HPM_P1;HPM_P2
2022/02/01 00:02:26;;;;;;;14.53;1.00;;;2.80;99.90;;;;;;5041215;28;20032;-78
2022/02/01 00:05:04;;;;;;;12.93;1.37;;;2.80;99.90;;;;;;5022017;28;20045;-78
2022/02/01 00:07:43;;;;;;;17.10;1.90;;;2.70;99.90;;;;;;5024335;28;20069;-78
2022/02/01 00:10:42;;;;;;;18.08;1.50;;;2.70;99.90;;;;;;5055473;28;20912;-78
2022/02/01 00:13:23;;;;;;;19.47;1.13;;;2.70;99.90;;;;;;5029311;28;20041;-78
2022/02/01 00:18:37;;;;;;;14.00;1.63;;;2.70;99.90;;;;;;5023826;28;20482;-78
2022/02/01 00:37:32;;;;;;;16.67;2.10;;;2.60;99.90;;;;;;5053454;28;20039;-77
2022/02/01 00:40:00;;;;;;;18.57;2.20;;;2.70;99.90;;;;;;5051149;28;20059;-78
2022/02/01 00:42:26;;;;;;;24.20;2.27;;;2.70;99.90;;;;;;5038323;28;20028;-78
2022/02/01 00:44:53;;;;;;;13.43;1.83;;;2.70;99.90;;;;;;5036752;28;20613;-78
2022/02/01 00:47:19;;;;;;;16.23;1.73;;;2.70;99.90;;;;;;5063037;28;20036;-78
2022/02/01 00:49:46;;;;;;;14.77;1.30;;;2.70;99.90;;;;;;5034201;28;20040;-78
2022/02/01 00:52:12;;;;;;;18.97;2.10;;;2.70;99.90;;;;;;5049675;28;20016;-78
2022/02/01 00:54:40;;;;;;;20.73;1.40;;;2.80;99.90;;;;;;5060390;28;20036;-78
2022/02/01 00:57:10;;;;;;;15.17;2.43;;;2.80;99.90;;;;;;5063251;28;20103;-78
2022/02/01 00:59:37;;;;;;;17.50;1.90;;;2.80;99.90;;;;;;5047874;28;20043;-78
2022/02/01 01:02:04;;;;;;;18.00;1.80;;;2.80;99.90;;;;;;5039374;28;20036;-78
2022/02/01 01:04:31;;;;;;;17.40;1.40;;;2.90;99.90;;;;;;5046985;28;20397;-78
2022/02/01 01:06:57;;;;;;;10.00;0.90;;;3.00;99.90;;;;;;5037124;28;20039;-78
2022/02/01 01:09:24;;;;;;;15.50;1.17;;;3.00;99.90;;;;;;5032346;28;20043;-78
2022/02/01 01:11:54;;;;;;;16.13;0.90;;;3.00;99.90;;;;;;5049182;28;20051;-78
2022/02/01 01:44:09;;;;;;;19.30;1.13;;;3.20;99.90;;;;;;5061289;28;20119;-78
2022/02/01 01:54:51;;;;;;;15.52;1.52;;;3.20;99.90;;;;;;5040493;28;20033;-78
2022/02/01 01:57:18;;;;;;;14.10;0.80;;;3.30;99.90;;;;;;5036118;28;20403;-78
2022/02/01 01:59:44;;;;;;;14.23;1.00;;;3.30;99.90;;;;;;5048798;28;20363;-78
2022/02/01 02:02:11;;;;;;;16.97;1.80;;;3.30;99.90;;;;;;5037780;28;20037;-78
2022/02/01 02:04:37;;;;;;;21.47;1.70;;;3.30;99.90;;;;;;5068572;28;20043;-78
2022/02/01 02:07:04;;;;;;;15.07;1.07;;;3.30;99.90;;;;;;5056484;28;20056;-78
2022/02/01 02:09:30;;;;;;;16.63;1.30;;;3.30;99.90;;;;;;5049794;28;20032;-78
2022/02/01 02:12:09;;;;;;;13.10;1.10;;;3.30;99.90;;;;;;5064588;28;20032;-78
2022/02/01 02:14:43;;;;;;;14.67;1.43;;;3.30;99.90;;;;;;5036237;28;20365;-78
2022/02/01 02:17:10;;;;;;;15.70;1.67;;;3.40;99.90;;;;;;5081816;28;20024;-78
2022/02/01 02:19:36;;;;;;;19.70;1.57;;;3.40;99.90;;;;;;5049421;28;20048;-78
2022/02/01 02:22:05;;;;;;;9.57;0.73;;;3.40;99.90;;;;;;5066161;28;20495;-78
2022/02/01 02:24:38;;;;;;;17.00;1.20;;;3.40;99.90;;;;;;5047397;28;20031;-77
2022/02/01 02:27:05;;;;;;;;;;;3.40;99.90;;;;;;5067506;28;20032;-78
2022/02/01 02:29:32;;;;;;;12.15;1.13;;;3.40;99.90;;;;;;5063184;28;19908;-78
2022/02/01 02:31:59;;;;;;;17.30;1.30;;;3.40;99.90;;;;;;5064339;28;20024;-78
2022/02/01 02:34:26;;;;;;;16.77;1.00;;;3.50;99.90;;;;;;5047584;28;20476;-78
2022/02/01 02:37:00;;;;;;;16.03;0.90;;;3.40;99.90;;;;;;5059709;28;20040;-78
2022/02/01 02:39:48;;;;;;;11.47;1.70;;;3.40;99.90;;;;;;5063552;28;20359;-78
2022/02/01 02:42:26;;;;;;;13.87;0.80;;;3.50;99.90;;;;;;5045722;28;20043;-78
2022/02/01 02:45:09;;;;;;;9.17;0.87;;;3.50;99.90;;;;;;5048690;28;20044;-78
2022/02/01 02:47:35;;;;;;;11.95;0.63;;;3.50;99.90;;;;;;5036753;28;20493;-78
2022/02/01 02:50:03;;;;;;;10.30;0.50;;;3.50;99.90;;;;;;5061682;28;20058;-78
2022/02/01 02:52:30;;;;;;;11.40;0.90;;;3.50;99.90;;;;;;5047169;28;20032;-78
2022/02/01 02:54:58;;;;;;;11.50;1.10;;;3.50;99.90;;;;;;5076667;28;20020;-78
2022/02/01 02:57:26;;;;;;;12.70;1.20;;;3.50;99.90;;;;;;5076013;28;20012;-78
2022/02/01 02:59:52;;;;;;;8.30;0.70;;;3.50;99.90;;;;;;5044591;28;20048;-78
2022/02/01 03:02:19;;;;;;;16.43;0.97;;;3.50;99.90;;;;;;5051010;28;20390;-78
2022/02/01 03:04:46;;;;;;;13.63;1.03;;;3.50;99.90;;;;;;5045553;28;20471;-78
2022/02/01 03:07:13;;;;;;;11.15;0.88;;;3.50;99.90;;;;;;5048325;28;20367;-78
2022/02/01 03:09:42;;;;;;;5.85;0.70;;;3.50;99.90;;;;;;5032698;28;20036;-78
2022/02/01 03:12:11;;;;;;;14.47;0.80;;;3.50;99.90;;;;;;5014905;28;20028;-78
2022/02/01 03:19:58;;;;;;;12.33;0.90;;;3.50;99.90;;;;;;5053096;28;20055;-78
2022/02/01 03:22:28;;;;;;;12.80;1.55;;;3.50;99.90;;;;;;5042049;28;20067;-78
2022/02/01 03:24:56;;;;;;;13.23;0.80;;;3.50;99.90;;;;;;5050731;28;20040;-78
2022/02/01 03:27:23;;;;;;;11.63;1.00;;;3.50;99.90;;;;;;5078488;28;20047;-78
2022/02/01 03:29:50;;;;;;;13.70;1.20;;;3.50;99.90;;;;;;5050459;28;20046;-78
2022/02/01 03:32:20;;;;;;;13.30;1.65;;;3.60;99.90;;;;;;5070139;28;20021;-78
2022/02/01 03:34:47;;;;;;;10.63;1.00;;;3.60;99.90;;;;;;5060835;28;20032;-78
2022/02/01 03:37:14;;;;;;;18.75;1.38;;;3.60;99.90;;;;;;5061998;28;20056;-78
2022/02/01 03:39:42;;;;;;;10.75;0.90;;;3.60;99.90;;;;;;5062565;28;20043;-78
2022/02/01 03:42:10;;;;;;;9.35;0.82;;;3.60;99.90;;;;;;5060461;28;20043;-78
2022/02/01 03:44:36;;;;;;;10.48;1.10;;;3.60;99.90;;;;;;5035719;28;20028;-78
2022/02/01 03:47:03;;;;;;;14.73;1.23;;;3.70;99.90;;;;;;5065268;28;20387;-78
2022/02/01 03:49:33;;;;;;;8.00;1.17;;;3.70;99.90;;;;;;5033175;28;20036;-79
2022/02/01 03:52:00;;;;;;;13.07;0.70;;;3.70;99.90;;;;;;5034260;28;20033;-79
2022/02/01 03:54:31;;;;;;;9.50;0.68;;;3.80;99.90;;;;;;5048799;28;20944;-78
2022/02/01 03:56:58;;;;;;;10.93;0.73;;;3.80;99.90;;;;;;5063265;28;20020;-78
2022/02/01 03:59:25;;;;;;;8.50;0.80;;;3.80;99.90;;;;;;5034752;28;20043;-78
2022/02/01 04:01:55;;;;;;;12.23;0.73;;;3.80;99.90;;;;;;5080253;28;20024;-78
2022/02/01 04:04:23;;;;;;;8.57;1.35;;;3.90;99.90;;;;;;5077181;28;20024;-79
2022/02/01 04:06:51;;;;;;;12.70;1.23;;;3.90;99.90;;;;;;5047886;28;20505;-78
2022/02/01 04:09:17;;;;;;;11.88;1.23;;;3.80;99.90;;;;;;5051331;28;20032;-78
2022/02/01 04:11:44;;;;;;;17.60;0.95;;;3.90;99.90;;;;;;5063705;28;20024;-78
2022/02/01 04:14:15;;;;;;;8.13;0.73;;;3.90;99.90;;;;;;5049153;28;20031;-78
2022/02/01 04:16:41;;;;;;;11.70;0.80;;;3.90;99.90;;;;;;5063930;28;20391;-78
2022/02/01 04:19:08;;;;;;;10.15;0.85;;;3.90;99.90;;;;;;5065383;28;20032;-78
2022/02/01 04:21:35;;;;;;;13.45;1.20;;;3.80;99.90;;;;;;5037538;28;20057;-78
2022/02/01 04:24:01;;;;;;;16.55;1.05;;;3.80;99.90;;;;;;5047873;28;20032;-78
2022/02/01 04:26:28;;;;;;;10.90;1.20;;;3.80;99.90;;;;;;5066311;28;20498;-78
2022/02/01 04:28:54;;;;;;;8.43;1.27;;;3.90;99.90;;;;;;5033543;28;20053;-78
2022/02/01 04:31:21;;;;;;;16.33;1.20;;;3.80;99.90;;;;;;5043746;28;20023;-78
2022/02/01 04:33:47;;;;;;;11.20;0.85;;;3.90;99.90;;;;;;5030044;28;20503;-78
2022/02/01 04:36:14;;;;;;;12.00;1.15;;;3.80;99.90;;;;;;5062280;28;20039;-78
2022/02/01 04:38:50;;;;;;;11.10;1.10;;;3.90;99.90;;;;;;5045641;28;20036;-79
2022/02/01 04:41:16;;;;;;;7.13;0.75;;;3.90;99.90;;;;;;5033085;28;20043;-78
2022/02/01 04:43:43;;;;;;;11.90;1.10;;;3.80;99.90;;;;;;5043107;28;20473;-78
2022/02/01 04:46:10;;;;;;;7.65;0.80;;;3.80;99.90;;;;;;5046145;28;20514;-78
2022/02/01 04:48:36;;;;;;;10.33;1.80;;;3.80;99.90;;;;;;5044732;28;20043;-78
2022/02/01 04:51:03;;;;;;;12.55;1.40;;;3.80;99.90;;;;;;5062879;28;20043;-78
2022/02/01 04:53:29;;;;;;;14.98;1.50;;;3.80;99.90;;;;;;5030165;28;20028;-78
2022/02/01 04:55:56;;;;;;;12.10;1.33;;;3.80;99.90;;;;;;5077275;28;20028;-78
2022/02/01 04:58:25;;;;;;;15.75;1.63;;;3.80;99.90;;;;;;5032440;28;20047;-78
2022/02/01 05:00:53;;;;;;;10.63;1.40;;;3.80;99.90;;;;;;5031631;28;20040;-78
2022/02/01 05:03:20;;;;;;;16.90;1.23;;;3.80;99.90;;;;;;5061407;28;20028;-78
2022/02/01 05:05:46;;;;;;;6.47;1.25;;;3.80;99.90;;;;;;5061805;28;20043;-78
2022/02/01 05:08:13;;;;;;;9.93;1.10;;;3.80;99.90;;;;;;5063531;28;20044;-78
2022/02/01 05:10:40;;;;;;;14.40;1.30;;;3.70;99.90;;;;;;5061143;28;20043;-78
2022/02/01 05:15:40;;;;;;;11.35;1.35;;;3.70;99.90;;;;;;5046613;28;20036;-79
2022/02/01 05:18:13;;;;;;;11.73;1.30;;;3.70;99.90;;;;;;5032584;28;20055;-78
2022/02/01 05:20:54;;;;;;;16.60;2.30;;;3.60;99.90;;;;;;5023831;28;20039;-78
2022/02/01 05:23:22;;;;;;;11.70;1.60;;;3.60;99.90;;;;;;5060174;28;20494;-78
2022/02/01 05:25:50;;;;;;;12.25;1.33;;;3.60;99.90;;;;;;5057666;28;20376;-76
2022/02/01 05:28:17;;;;;;;16.58;1.95;;;3.60;99.90;;;;;;5042796;28;20479;-78
2022/02/01 05:30:44;;;;;;;11.85;2.13;;;3.60;99.90;;;;;;5079299;28;20035;-78
2022/02/01 05:33:11;;;;;;;13.23;1.97;;;3.50;99.90;;;;;;5049500;28;20058;-78
2022/02/01 05:35:37;;;;;;;13.57;2.63;;;3.50;99.90;;;;;;5064706;28;20379;-77
2022/02/01 05:38:03;;;;;;;13.20;3.88;;;3.50;99.90;;;;;;5064036;28;20043;-77
2022/02/01 05:40:30;;;;;;;12.27;2.20;;;3.40;99.90;;;;;;5061918;28;20407;-78
2022/02/01 05:43:03;;;;;;;13.37;2.27;;;3.40;99.90;;;;;;5047133;28;20036;-78
2022/02/01 05:45:33;;;;;;;7.73;1.53;;;3.30;99.90;;;;;;5049673;28;20040;-78
2022/02/01 05:48:04;;;;;;;8.50;1.63;;;3.40;99.90;;;;;;5062183;28;20047;-78
2022/02/01 05:50:31;;;;;;;9.77;1.73;;;3.40;99.90;;;;;;5033170;28;20157;-77
2022/02/01 05:52:58;;;;;;;17.30;2.37;;;3.40;99.90;;;;;;5045257;28;20028;-77
2022/02/01 05:55:24;;;;;;;11.73;2.67;;;3.50;99.90;;;;;;5062290;28;20024;-78
2022/02/01 05:57:53;;;;;;;16.83;2.97;;;3.50;99.90;;;;;;5043522;28;20371;-77
2022/02/01 06:00:20;;;;;;;14.43;2.67;;;3.60;99.90;;;;;;5033126;28;20044;-78
2022/02/01 06:02:47;;;;;;;14.20;2.40;;;3.60;99.90;;;;;;5061814;28;20035;-75
2022/02/01 06:05:17;;;;;;;14.77;2.35;;;3.70;99.90;;;;;;5056440;28;20028;-81
2022/02/01 06:07:43;;;;;;;15.45;2.10;;;3.80;99.90;;;;;;5045390;28;20044;-77
2022/02/01 06:10:10;;;;;;;17.73;2.00;;;3.80;99.90;;;;;;5032006;28;20033;-77
2022/02/01 06:12:45;;;;;;;19.00;2.17;;;3.80;99.90;;;;;;5059865;28;20020;-77
2022/02/01 06:15:12;;;;;;;17.88;2.30;;;3.90;99.90;;;;;;5056068;28;20029;-77
2022/02/01 06:17:39;;;;;;;13.20;2.27;;;3.90;99.90;;;;;;5042408;28;20372;-78
2022/02/01 06:20:08;;;;;;;19.90;3.53;;;3.90;99.90;;;;;;5044413;28;20036;-78
2022/02/01 06:22:35;;;;;;;14.10;1.70;;;4.00;99.90;;;;;;5071552;28;20028;-78
2022/02/01 06:25:02;;;;;;;21.97;1.80;;;4.00;99.90;;;;;;5042492;28;20379;-78
2022/02/01 06:27:28;;;;;;;17.20;2.33;;;4.00;99.90;;;;;;5043989;28;20029;-78
2022/02/01 06:29:55;;;;;;;15.30;1.65;;;4.10;99.90;;;;;;5039186;28;20042;-78
2022/02/01 06:32:22;;;;;;;14.30;1.90;;;4.00;99.90;;;;;;5046025;28;20043;-78
2022/02/01 06:34:48;;;;;;;17.83;2.10;;;4.00;99.90;;;;;;5026545;28;20047;-79
2022/02/01 06:37:15;;;;;;;22.70;2.80;;;4.10;99.90;;;;;;5039890;28;20024;-78
2022/02/01 06:39:41;;;;;;;14.65;1.90;;;4.10;99.90;;;;;;5059210;28;20055;-78
2022/02/01 06:42:09;;;;;;;18.53;2.40;;;4.10;99.90;;;;;;5065405;28;20028;-77
2022/02/01 06:44:35;;;;;;;22.70;2.97;;;4.10;99.90;;;;;;5059935;28;20067;-77
2022/02/01 06:47:02;;;;;;;21.08;2.90;;;4.10;99.90;;;;;;5062827;28;20032;-77
2022/02/01 06:49:29;;;;;;;20.50;2.57;;;4.10;99.90;;;;;;5034971;28;20028;-77
2022/02/01 06:51:55;;;;;;;13.35;3.17;;;4.20;99.90;;;;;;5065663;28;20036;-77
2022/02/01 06:54:22;;;;;;;15.02;2.80;;;4.20;99.90;;;;;;5048727;28;20048;-78
2022/02/01 06:56:48;;;;;;;22.80;3.67;;;4.20;99.90;;;;;;5048020;28;20041;-77
2022/02/01 06:59:15;;;;;;;15.63;3.25;;;4.20;99.90;;;;;;5044983;28;20510;-81
2022/02/01 07:01:41;;;;;;;26.65;3.80;;;4.20;99.90;;;;;;5059513;28;20028;-82
2022/02/01 07:04:07;;;;;;;27.75;5.13;;;4.30;99.90;;;;;;5040726;28;20047;-79
2022/02/01 07:06:34;;;;;;;22.52;4.53;;;4.30;99.90;;;;;;5060392;28;20039;-81
2022/02/01 07:09:04;;;;;;;23.17;4.70;;;4.40;99.90;;;;;;5030169;28;20052;-77
2022/02/01 07:11:31;;;;;;;21.80;4.67;;;4.40;99.90;;;;;;5046844;28;20028;-77
2022/02/01 07:13:57;;;;;;;20.23;4.55;;;4.40;99.90;;;;;;5050458;28;20047;-78
2022/02/01 07:16:24;;;;;;;28.30;6.93;;;4.40;99.90;;;;;;5050074;28;20051;-78
2022/02/01 07:18:50;;;;;;;53.60;23.73;;;4.50;99.90;;;;;;5063822;28;20039;-79
2022/02/01 07:21:17;;;;;;;30.48;9.65;;;4.50;99.90;;;;;;5034819;28;20046;-78
2022/02/01 07:23:43;;;;;;;27.08;8.43;;;4.50;99.90;;;;;;5030003;28;20039;-78
2022/02/01 07:26:10;;;;;;;19.85;6.47;;;4.50;99.90;;;;;;5050344;28;20039;-80
2022/02/01 07:28:37;;;;;;;25.83;7.15;;;4.50;99.90;;;;;;5044251;28;20039;-80
2022/02/01 07:31:04;;;;;;;34.35;10.55;;;4.60;99.90;;;;;;5057165;28;20043;-78
2022/02/01 07:33:31;;;;;;;32.60;9.27;;;4.70;99.90;;;;;;5045728;28;20116;-78
2022/02/01 07:35:59;;;;;;;28.67;9.75;;;4.70;99.90;;;;;;5060306;28;20040;-78
2022/02/01 07:38:26;;;;;;;30.30;10.52;;;4.70;99.90;;;;;;5064193;28;20028;-78
2022/02/01 07:40:55;;;;;;;28.13;9.80;;;4.70;99.90;;;;;;5063974;28;20517;-78
2022/02/01 07:43:24;;;;;;;28.45;9.30;;;4.70;99.90;;;;;;5044741;28;20039;-78
2022/02/01 07:45:52;;;;;;;36.17;11.35;;;4.80;99.90;;;;;;5060841;28;20037;-78
2022/02/01 07:48:18;;;;;;;29.67;10.05;;;4.70;99.90;;;;;;5047071;28;20032;-79
2022/02/01 07:50:45;;;;;;;34.63;10.65;;;4.80;99.90;;;;;;5063569;28;20036;-78
2022/02/01 07:53:12;;;;;;;35.10;12.70;;;4.80;99.90;;;;;;5047926;28;20031;-78
2022/02/01 07:55:39;;;;;;;33.47;10.85;;;4.80;99.90;;;;;;5047125;28;20025;-78
2022/02/01 07:58:06;;;;;;;29.47;12.03;;;4.80;99.90;;;;;;5048437;28;20036;-78
2022/02/01 08:00:33;;;;;;;29.10;12.77;;;4.80;99.90;;;;;;5044067;28;20582;-78
2022/02/01 08:03:00;;;;;;;29.10;11.80;;;4.80;99.90;;;;;;5060195;28;20051;-77
2022/02/01 08:05:29;;;;;;;45.42;17.63;;;4.80;99.90;;;;;;5080353;28;20020;-77
2022/02/01 08:07:57;;;;;;;32.83;17.02;;;4.90;99.90;;;;;;5046767;28;20470;-78
2022/02/01 08:10:27;;;;;;;36.97;16.60;;;4.90;99.90;;;;;;5079645;28;20043;-78
2022/02/01 08:21:01;;;;;;;33.55;18.00;;;4.90;99.90;;;;;;5075752;28;20032;-78
2022/02/01 08:23:28;;;;;;;51.45;23.40;;;4.90;99.90;;;;;;5021393;28;20052;-78
2022/02/01 08:25:56;;;;;;;33.33;19.50;;;4.90;99.90;;;;;;5057378;28;20036;-77
2022/02/01 08:28:22;;;;;;;36.03;18.63;;;5.00;99.90;;;;;;5022915;28;20029;-77
2022/02/01 08:30:50;;;;;;;43.00;21.45;;;5.00;99.90;;;;;;5010636;28;20116;-77
2022/02/01 08:33:17;;;;;;;39.05;19.52;;;5.00;99.90;;;;;;5058571;28;20029;-77
2022/02/01 08:35:44;;;;;;;39.00;20.80;;;5.00;99.90;;;;;;5028053;28;20039;-78
2022/02/01 08:38:11;;;;;;;48.10;21.85;;;5.00;99.90;;;;;;5060085;28;20456;-77
2022/02/01 08:40:38;;;;;;;35.10;19.95;;;5.10;99.90;;;;;;5026615;28;20037;-78
2022/02/01 08:43:04;;;;;;;49.90;23.90;;;5.10;99.90;;;;;;5044962;28;20040;-77
2022/02/01 08:45:31;;;;;;;34.45;20.15;;;5.10;99.90;;;;;;5039156;28;20052;-78
2022/02/01 08:47:58;;;;;;;34.33;19.70;;;5.10;99.90;;;;;;5054503;28;20514;-78
2022/02/01 08:50:31;;;;;;;36.37;20.43;;;5.10;99.90;;;;;;5013327;28;20044;-77
2022/02/01 08:53:03;;;;;;;45.80;24.75;;;5.20;99.90;;;;;;5058353;28;20037;-78
2022/02/01 08:55:39;;;;;;;38.08;21.98;;;5.20;99.90;;;;;;5028850;28;20480;-78
2022/02/01 08:58:07;;;;;;;42.47;23.15;;;5.20;99.90;;;;;;5016491;28;20047;-78
2022/02/01 09:00:34;;;;;;;50.38;26.65;;;5.20;99.90;;;;;;5029401;28;20031;-78
2022/02/01 09:03:03;;;;;;;69.28;31.73;;;5.20;99.90;;;;;;5041846;28;20043;-78
2022/02/01 09:05:31;;;;;;;41.97;24.85;;;5.20;99.90;;;;;;5060048;28;20616;-78
2022/02/01 09:08:01;;;;;;;61.08;26.92;;;5.30;99.90;;;;;;5042883;28;20031;-78
2022/02/01 09:10:32;;;;;;;45.83;24.13;;;5.30;99.90;;;;;;5057704;28;20032;-78
2022/02/01 09:12:59;;;;;;;59.45;29.40;;;5.30;99.90;;;;;;5059365;28;20036;-78
2022/02/01 09:15:28;;;;;;;41.70;23.27;;;5.40;99.90;;;;;;5053547;28;20039;-78
2022/02/01 09:17:58;;;;;;;39.67;22.90;;;5.40;99.90;;;;;;5057514;28;20040;-78
2022/02/01 09:20:25;;;;;;;48.10;24.13;;;5.40;99.90;;;;;;5058517;28;20390;-78
2022/02/01 09:22:53;;;;;;;33.60;20.60;;;5.50;99.90;;;;;;5047061;28;20232;-78
2022/02/01 09:25:20;;;;;;;35.10;22.20;;;5.50;99.90;;;;;;5021396;28;20381;-78
2022/02/01 09:27:48;;;;;;;45.65;24.58;;;5.50;99.90;;;;;;5022791;28;20036;-78
2022/02/01 09:30:20;;;;;;;42.72;24.90;;;5.50;99.90;;;;;;5007709;28;20045;-78
2022/02/01 09:32:47;;;;;;;39.95;22.65;;;5.50;99.90;;;;;;5034723;28;20040;-78
2022/02/01 09:35:14;;;;;;;30.80;20.88;;;5.60;99.90;;;;;;5051995;28;20017;-78
2022/02/01 09:37:41;;;;;;;36.50;21.60;;;5.60;99.90;;;;;;5005807;28;20030;-78
2022/02/01 09:40:08;;;;;;;35.13;21.58;;;5.60;99.90;;;;;;5045389;28;20116;-79
2022/02/01 09:42:41;;;;;;;35.83;21.38;;;5.60;99.90;;;;;;5004070;28;20037;-78
2022/02/01 09:45:08;;;;;;;37.60;21.52;;;5.60;99.90;;;;;;5022248;28;20045;-78
2022/02/01 09:47:38;;;;;;;37.65;21.35;;;5.70;99.90;;;;;;5007096;28;20044;-78
2022/02/01 09:50:05;;;;;;;35.65;21.80;;;5.70;99.90;;;;;;5017413;28;20029;-78
2022/02/01 09:52:34;;;;;;;45.75;25.38;;;5.70;99.90;;;;;;5022960;28;20036;-78
2022/02/01 09:55:07;;;;;;;34.88;21.65;;;5.70;99.90;;;;;;5036381;28;20413;-78
2022/02/01 09:57:34;;;;;;;;;;;5.70;99.90;;;;;;5022239;28;20037;-78
2022/02/01 10:00:04;;;;;;;29.38;18.55;;;5.70;99.90;;;;;;5037228;28;19916;-78
2022/02/01 10:02:39;;;;;;;27.23;16.60;;;5.80;99.90;;;;;;5043269;28;20037;-79
2022/02/01 10:05:12;;;;;;;32.13;19.27;;;5.80;99.90;;;;;;5019027;28;20037;-79
2022/02/01 10:08:05;;;;;;;29.08;16.85;;;5.80;99.90;;;;;;5036842;28;20395;-79
2022/02/01 10:10:32;;;;;;;23.75;15.98;;;5.80;99.90;;;;;;5018216;28;20057;-78
2022/02/01 10:13:15;;;;;;;20.77;14.23;;;5.90;99.90;;;;;;5056807;28;20025;-78
2022/02/01 10:15:54;;;;;;;20.63;13.82;;;5.90;99.90;;;;;;5043435;28;20029;-78
2022/02/01 10:18:33;;;;;;;17.50;12.38;;;5.90;99.90;;;;;;5015289;28;20029;-78
2022/02/01 10:21:09;;;;;;;24.23;14.65;;;5.90;99.90;;;;;;5037281;28;20029;-79
2022/02/01 10:23:40;;;;;;;17.98;12.30;;;6.00;99.90;;;;;;5023028;28;21596;-78
2022/02/01 10:26:20;;;;;;;21.02;12.75;;;6.00;99.90;;;;;;5037548;28;20041;-78
2022/02/01 10:29:07;;;;;;;13.60;10.10;;;6.00;99.90;;;;;;5024986;28;20044;-78
2022/02/01 10:31:43;;;;;;;22.75;13.32;;;6.10;99.90;;;;;;5040414;28;20033;-78
2022/02/01 10:36:56;;;;;;;21.75;12.27;;;6.20;99.90;;;;;;5034229;28;20515;-78
2022/02/01 10:39:23;;;;;;;20.48;12.70;;;6.20;99.90;;;;;;5038361;28;20044;-78
2022/02/01 10:42:05;;;;;;;21.00;12.18;;;6.20;99.90;;;;;;5007977;28;20031;-78
2022/02/01 10:44:50;;;;;;;16.55;11.30;;;6.20;99.90;;;;;;5018139;28;20534;-78
2022/02/01 10:47:29;;;;;;;20.83;12.40;;;6.30;99.90;;;;;;5037866;28;20045;-78
2022/02/01 10:50:14;;;;;;;15.68;10.93;;;6.30;99.90;;;;;;5018765;28;20033;-78
2022/02/01 10:52:44;;;;;;;18.13;11.10;;;6.30;99.90;;;;;;5053612;28;20028;-81
2022/02/01 10:55:11;;;;;;;17.85;11.63;;;6.40;99.90;;;;;;5048803;28;20037;-78
2022/02/01 10:57:39;;;;;;;11.82;8.57;;;6.40;99.90;;;;;;5025158;28;20391;-77
2022/02/01 11:00:09;;;;;;;12.95;9.18;;;6.40;99.90;;;;;;5039928;28;20509;-77
2022/02/01 11:02:42;;;;;;;18.50;9.68;;;6.50;99.90;;;;;;5024413;28;20024;-77
2022/02/01 11:05:10;;;;;;;13.15;9.45;;;6.60;99.90;;;;;;5020088;28;20037;-77
2022/02/01 11:07:37;;;;;;;13.00;9.05;;;6.60;99.90;;;;;;5040519;28;20071;-77
2022/02/01 11:10:11;;;;;;;18.33;10.02;;;6.70;99.90;;;;;;5041062;28;20498;-77
2022/02/01 11:12:39;;;;;;;13.85;9.02;;;6.70;99.90;;;;;;5041207;28;20037;-78
2022/02/01 11:15:19;;;;;;;15.40;10.68;;;6.80;99.90;;;;;;5006297;28;20060;-78
2022/02/01 11:17:49;;;;;;;11.88;8.82;;;6.80;99.90;;;;;;5007031;28;20503;-77
2022/02/01 11:20:26;;;;;;;10.90;8.00;;;6.80;99.90;;;;;;5021834;28;20028;-78
2022/02/01 11:23:15;;;;;;;12.07;8.48;;;6.80;99.90;;;;;;5020006;28;20053;-78
2022/02/01 11:25:49;;;;;;;10.27;7.55;;;6.90;99.90;;;;;;5036647;28;20663;-77
2022/02/01 11:31:31;;;;;;;14.90;8.13;;;7.00;99.90;;;;;;5018507;28;20056;-76
2022/02/01 11:33:57;;;;;;;11.43;7.15;;;7.00;99.90;;;;;;5035869;28;21511;-77
2022/02/01 11:36:24;;;;;;;7.40;5.50;;;7.10;99.90;;;;;;5038698;28;20033;-76
2022/02/01 11:38:55;;;;;;;7.45;5.28;;;7.10;99.90;;;;;;5022574;28;20826;-77
2022/02/01 11:41:36;;;;;;;7.63;5.60;;;7.20;99.90;;;;;;5038223;28;20033;-77
2022/02/01 11:44:18;;;;;;;6.90;4.65;;;7.20;99.90;;;;;;5035069;28;20021;-77
2022/02/01 11:47:08;;;;;;;7.95;5.38;;;7.30;99.90;;;;;;5021732;28;20044;-78
2022/02/01 11:49:51;;;;;;;6.00;4.95;;;7.40;99.90;;;;;;5018269;28;20357;-78
2022/02/01 11:52:18;;;;;;;3.90;3.50;;;7.40;99.90;;;;;;5020458;28;20029;-78
2022/02/01 11:54:47;;;;;;;7.32;4.50;;;7.50;99.90;;;;;;5021847;28;20053;-78
2022/02/01 11:57:33;;;;;;;4.85;3.88;;;7.50;99.90;;;;;;5009099;28;20038;-78
2022/02/01 12:00:19;;;;;;;4.05;3.13;;;7.50;99.90;;;;;;5036342;28;20038;-77
2022/02/01 12:02:49;;;;;;;5.50;3.50;;;7.60;99.90;;;;;;5034548;28;20044;-78
2022/02/01 12:05:18;;;;;;;4.53;2.97;;;7.70;99.90;;;;;;5020684;28;20488;-78
2022/02/01 12:08:01;;;;;;;5.90;4.00;;;7.70;99.90;;;;;;5027595;28;20140;-82
2022/02/01 12:10:37;;;;;;;4.50;3.85;;;7.70;99.90;;;;;;5018590;28;20045;-77
2022/02/01 12:13:04;;;;;;;4.65;3.00;;;7.70;99.90;;;;;;5037128;28;20037;-77
2022/02/01 12:15:39;;;;;;;4.85;2.95;;;7.70;99.90;;;;;;5023003;28;20029;-77
2022/02/01 12:18:30;;;;;;;7.15;4.90;;;7.80;99.90;;;;;;5038163;28;20037;-80
2022/02/01 12:21:29;;;;;;;8.63;5.78;;;7.80;99.90;;;;;;5040631;28;20041;-80
2022/02/01 12:23:58;;;;;;;8.10;5.20;;;7.80;99.90;;;;;;5032634;28;20051;-80
2022/02/01 12:26:27;;;;;;;9.48;4.75;;;7.80;99.90;;;;;;5062520;28;20039;-80
2022/02/01 12:28:56;;;;;;;8.27;6.25;;;7.90;99.90;;;;;;5057772;28;21333;-80
2022/02/01 12:31:28;;;;;;;10.45;5.65;;;7.80;99.90;;;;;;5051642;28;20414;-78
2022/02/01 12:33:56;;;;;;;17.20;8.87;;;7.90;99.90;;;;;;5044532;28;20660;-78
2022/02/01 12:36:31;;;;;;;10.60;6.25;;;7.90;99.90;;;;;;5060949;28;20036;-78
2022/02/01 12:38:59;;;;;;;14.65;6.80;;;8.00;99.90;;;;;;5061472;28;20024;-78
2022/02/01 12:41:31;;;;;;;19.73;7.18;;;8.00;99.90;;;;;;5058624;28;20020;-78
2022/02/01 12:46:52;;;;;;;13.13;6.85;;;8.20;99.90;;;;;;5046929;28;20037;-78
2022/02/01 12:49:31;;;;;;;16.00;6.68;;;8.20;99.90;;;;;;5047840;28;20410;-78
2022/02/01 12:51:57;;;;;;;20.73;6.95;;;8.30;99.90;;;;;;5062965;28;20629;-78
2022/02/01 12:54:36;;;;;;;21.13;7.55;;;8.30;99.90;;;;;;5056557;28;20382;-78
2022/02/01 12:57:13;;;;;;;28.48;7.75;;;8.40;99.90;;;;;;5041485;28;20035;-78
2022/02/01 13:00:00;;;;;;;20.38;6.45;;;8.40;99.90;;;;;;5043943;28;20031;-78
2022/02/01 13:02:30;;;;;;;20.95;7.28;;;8.40;99.90;;;;;;5042599;28;20062;-77
2022/02/01 13:05:03;;;;;;;17.45;6.72;;;8.40;99.90;;;;;;5060906;28;20585;-78
2022/02/01 13:08:11;;;;;;;24.52;7.28;;;8.50;99.90;;;;;;5045599;28;20023;-80
2022/02/01 13:21:17;;;;;;;15.27;5.15;;;8.50;99.90;;;;;;5043735;28;20563;-80
2022/02/01 13:23:46;;;;;;;17.33;6.47;;;8.50;99.90;;;;;;5039959;28;20032;-80
2022/02/01 13:26:26;;;;;;;15.55;6.53;;;8.60;99.90;;;;;;5042310;28;20289;-81
2022/02/01 13:29:03;;;;;;;24.65;6.82;;;8.60;99.90;;;;;;5044137;28;20478;-81
2022/02/01 13:31:38;;;;;;;19.05;6.05;;;8.60;99.90;;;;;;5046363;28;20046;-80
2022/02/01 13:34:09;;;;;;;21.52;7.45;;;8.60;99.90;;;;;;5065093;28;20031;-80
2022/02/01 13:36:51;;;;;;;14.13;5.65;;;8.60;99.90;;;;;;5031392;28;20028;-81
2022/02/01 13:39:34;;;;;;;16.02;5.55;;;8.60;99.90;;;;;;5044994;28;20040;-80
2022/02/01 13:42:06;;;;;;;11.85;5.20;;;8.60;99.90;;;;;;5074732;28;20506;-80
2022/02/01 13:44:34;;;;;;;10.98;4.65;;;8.60;99.90;;;;;;5029150;28;20040;-81
2022/02/01 13:47:09;;;;;;;19.98;5.80;;;8.60;99.90;;;;;;5029189;28;20054;-81
2022/02/01 13:49:37;;;;;;;17.42;6.55;;;8.60;99.90;;;;;;5047135;28;20062;-81
2022/02/01 13:52:05;;;;;;;15.55;5.18;;;8.60;99.90;;;;;;5063470;28;20039;-81
2022/02/01 13:54:45;;;;;;;16.73;5.32;;;8.60;99.90;;;;;;5044926;28;20494;-81
2022/02/01 13:57:14;;;;;;;17.58;5.30;;;8.70;99.90;;;;;;5034587;28;20044;-80
2022/02/01 13:59:41;;;;;;;19.42;5.88;;;8.70;99.90;;;;;;5059142;28;20059;-81
2022/02/01 14:02:11;;;;;;;17.55;4.90;;;8.70;99.90;;;;;;5030010;28;20063;-80
2022/02/01 14:05:04;;;;;;;18.33;4.43;;;8.70;99.90;;;;;;5065241;28;20031;-81
2022/02/01 14:25:09;;;;;;;13.43;3.75;;;8.70;99.90;;;;;;5053621;28;20055;-81
2022/02/01 14:27:14;;;;;;;19.13;4.13;;;8.70;99.90;;;;;;5037731;28;20025;-80
2022/02/01 14:32:50;;;;;;;16.20;4.53;;;8.70;99.90;;;;;;5051230;28;20051;-80
2022/02/01 14:35:00;;;;;;;;;;;8.70;99.90;;;;;;5048139;28;20064;-80
2022/02/01 14:45:42;;;;;;;20.55;3.85;;;8.60;99.90;;;;;;5034781;28;20020;-80
2022/02/01 14:48:09;;;;;;;20.35;3.83;;;8.60;99.90;;;;;;5052021;28;20032;-80
2022/02/01 14:50:36;;;;;;;22.48;3.80;;;8.60;99.90;;;;;;5032575;28;20722;-80
2022/02/01 14:53:02;;;;;;;14.55;4.28;;;8.60;99.90;;;;;;5043779;28;20035;-78
2022/02/01 14:55:35;;;;;;;17.70;4.00;;;8.60;99.90;;;;;;5030821;28;20052;-82
2022/02/01 15:11:30;;;;;;;16.73;3.33;;;8.60;99.90;;;;;;5049831;28;20036;-80
2022/02/01 15:13:57;;;;;;;12.25;2.90;;;8.60;99.90;;;;;;5034622;28;20036;-80
2022/02/01 15:16:23;;;;;;;15.52;2.85;;;8.60;99.90;;;;;;5032377;28;20020;-80